Hilt, California
Current Conditions -  °F | °C
As of 12:53 AM on Monday 20 Oct 2014 (Local Time) from KSIY Reporting Station
Clear Clear  
Wind Chill: 61°   Ceiling: Unl
Heat Index: 61°   Visibility: 10mi
Dew Point: 47°   Wind: 14mph
Humidity: 60%   Direction: 170°S
Pressure: 29.82"   Gusts: NA
Location:  41.9064°N, 122.501°W
Report Text: KSIY 200753Z AUTO 17012KT 10SM CLR 16/08 A2982 RMK AO2 SLP089 T01610083 402280056
Loading
Personal Weather Stations






























Interactive Weather Map
Tropical Storm Tracking
New forecast layout! Learn more

10-Day Weather Forecast

Advertisements
Track Severe Weather on mobile